Terminal Aerodrome Forecast
Issued by NWS

Home | Current Version | Previous Version | Text Only | Print | Product List | Glossary On
Versions: 1 2 3 4 5 6 7 8 9 10 11 12 13 14
000
FTUS45 KTFX 260614 RRA
TAFHVR
TAF
KHVR 260614Z 2606/2706 22006KT P6SM FEW050 SCT080
     FM262000 31010KT P6SM FEW050 SCT080
     FM270100 36006KT P6SM -TSRA SCT050CB BKN100=

USA.gov is the U.S. government's official web portal to all federal, state and local government web resources and services.